createdAt,value
2018-06-21T00:01:28.009Z,6.03
2018-06-21T00:03:56.402Z,8.50
2018-06-21T00:06:24.638Z,7.53
2018-06-21T00:08:52.974Z,8.37
2018-06-21T00:11:21.294Z,8.37
2018-06-21T00:13:49.637Z,8.93
2018-06-21T00:16:18.029Z,9.40
2018-06-21T00:18:46.322Z,8.87
2018-06-21T00:21:14.585Z,8.57
2018-06-21T00:23:42.890Z,9.37
2018-06-21T00:26:11.219Z,10.87
2018-06-21T00:28:39.518Z,10.70
2018-06-21T00:31:07.865Z,9.90
2018-06-21T00:33:36.125Z,8.63
2018-06-21T00:36:04.590Z,9.23
2018-06-21T00:38:32.874Z,9.23
2018-06-21T00:41:00.861Z,9.67
2018-06-21T00:43:29.130Z,9.33
2018-06-21T00:45:57.495Z,10.17
2018-06-21T00:48:25.774Z,11.27
2018-06-21T00:50:53.818Z,11.47
2018-06-21T00:53:22.090Z,10.73
2018-06-21T00:56:01.583Z,9.07
2018-06-21T00:58:29.872Z,10.60
2018-06-21T01:00:58.634Z,14.90
2018-06-21T01:03:26.962Z,11.77
2018-06-21T01:05:55.274Z,13.07
2018-06-21T01:08:23.571Z,14.37
2018-06-21T01:10:51.590Z,14.53
2018-06-21T01:13:19.909Z,17.03
2018-06-21T01:15:48.171Z,14.03
2018-06-21T01:18:16.490Z,11.10
2018-06-21T01:20:44.922Z,15.60
2018-06-21T01:23:13.230Z,19.27
2018-06-21T01:25:41.215Z,14.77
2018-06-21T01:28:09.590Z,16.63
2018-06-21T01:30:37.924Z,16.00
2018-06-21T01:33:06.206Z,15.67
2018-06-21T01:35:34.658Z,17.27
2018-06-21T01:38:02.965Z,22.13
2018-06-21T01:40:31.269Z,24.30
2018-06-21T01:42:59.722Z,23.00
2018-06-21T01:45:27.985Z,24.60
2018-06-21T01:47:56.282Z,26.83
2018-06-21T01:50:24.596Z,25.13
2018-06-21T01:52:52.918Z,24.60
2018-06-21T01:55:21.206Z,26.40
2018-06-21T01:57:49.799Z,28.07
2018-06-21T02:00:18.142Z,30.53
2018-06-21T02:02:46.381Z,27.00
2018-06-21T02:05:14.697Z,28.17
2018-06-21T02:07:42.933Z,29.50
2018-06-21T02:10:11.187Z,35.10
2018-06-21T02:12:39.655Z,29.53
2018-06-21T02:15:08.002Z,32.47
2018-06-21T02:17:36.266Z,35.03
2018-06-21T02:20:04.862Z,32.37
2018-06-21T02:22:33.281Z,30.53
2018-06-21T02:25:01.693Z,38.45
2018-06-21T02:27:30.742Z,40.37
2018-06-21T02:29:59.042Z,35.13
2018-06-21T02:32:27.295Z,36.30
2018-06-21T02:34:55.917Z,44.43
2018-06-21T02:37:23.914Z,42.50
2018-06-21T02:39:52.186Z,35.83
2018-06-21T02:42:20.540Z,32.80
2018-06-21T02:44:48.537Z,37.57
2018-06-21T02:47:16.790Z,31.70
2018-06-21T02:49:45.166Z,35.30
2018-06-21T02:52:13.546Z,33.43
2018-06-21T02:54:41.851Z,36.07
2018-06-21T02:57:10.714Z,33.87
2018-06-21T02:59:38.754Z,35.87
2018-06-21T03:02:07.107Z,38.57
2018-06-21T03:04:35.562Z,36.43
2018-06-21T03:07:03.886Z,37.27
2018-06-21T03:09:32.158Z,36.43
2018-06-21T03:12:00.582Z,35.13
2018-06-21T03:14:28.932Z,35.23
2018-06-21T03:16:57.307Z,34.63
2018-06-21T03:19:25.908Z,37.30
2018-06-21T03:21:54.687Z,39.40
2018-06-21T03:24:23.078Z,37.80
2018-06-21T03:26:51.324Z,37.37
2018-06-21T03:29:19.701Z,34.60
2018-06-21T03:31:47.993Z,37.23
2018-06-21T03:34:16.361Z,34.53
2018-06-21T03:36:44.618Z,40.23
2018-06-21T03:39:12.885Z,34.93
2018-06-21T03:41:41.754Z,35.37
2018-06-21T03:44:10.094Z,35.97
2018-06-21T03:46:38.396Z,37.63
2018-06-21T03:49:06.822Z,30.87
2018-06-21T03:51:35.117Z,36.90
2018-06-21T03:54:03.430Z,32.37
2018-06-21T03:56:31.726Z,29.57
2018-06-21T03:59:00.102Z,28.57
2018-06-21T04:01:29.313Z,31.23
2018-06-21T04:03:57.849Z,31.30
2018-06-21T04:06:26.138Z,31.87
2018-06-21T04:08:54.586Z,33.67
2018-06-21T04:11:22.930Z,27.50
2018-06-21T04:13:51.238Z,23.67
2018-06-21T04:16:19.577Z,24.77
2018-06-21T04:18:48.066Z,16.57
2018-06-21T04:21:16.419Z,20.17
2018-06-21T04:23:45.014Z,22.43
2018-06-21T04:26:13.094Z,18.30
2018-06-21T04:28:41.133Z,18.07
2018-06-21T04:31:09.413Z,16.77
2018-06-21T04:33:38.122Z,12.17
2018-06-21T04:36:06.718Z,17.17
2018-06-21T04:38:35.027Z,11.87
2018-06-21T04:41:03.533Z,10.83
2018-06-21T04:43:31.863Z,12.63
2018-06-21T04:46:00.190Z,10.77
2018-06-21T04:48:28.498Z,9.00
2018-06-21T04:50:56.473Z,8.17
2018-06-21T04:53:24.882Z,10.33
2018-06-21T04:55:53.180Z,10.87
2018-06-21T04:58:21.515Z,9.50
2018-06-21T05:00:49.883Z,7.77
2018-06-21T05:03:18.482Z,7.43
2018-06-21T05:05:47.149Z,10.57
2018-06-21T05:08:15.402Z,9.33
2018-06-21T05:11:10.722Z,5.77
2018-06-21T05:13:40.289Z,8.37
2018-06-21T05:16:08.506Z,8.67
2018-06-21T05:18:36.802Z,6.57
2018-06-21T05:21:05.110Z,8.23
2018-06-21T05:23:33.379Z,8.00
2018-06-21T05:26:01.991Z,8.97
2018-06-21T05:28:30.236Z,9.97
2018-06-21T05:30:59.181Z,12.50
2018-06-21T05:33:28.310Z,11.33
2018-06-21T05:35:56.594Z,11.10
2018-06-21T05:38:24.833Z,9.53
2018-06-21T05:40:53.151Z,10.27
2018-06-21T05:43:21.418Z,8.83
2018-06-21T05:45:49.757Z,12.63
2018-06-21T05:48:18.074Z,8.53
2018-06-21T05:50:46.176Z,9.93
2018-06-21T05:53:14.450Z,14.33
2018-06-21T05:55:43.060Z,9.23
2018-06-21T05:58:11.730Z,11.93
2018-06-21T06:00:40.079Z,9.20
2018-06-21T06:03:09.299Z,6.17
2018-06-21T06:05:37.529Z,9.07
2018-06-21T06:08:05.802Z,9.90
2018-06-21T06:10:34.365Z,9.27
2018-06-21T06:13:02.661Z,9.37
2018-06-21T06:15:31.017Z,10.90
2018-06-21T06:18:00.514Z,6.43
2018-06-21T06:20:28.822Z,8.07
2018-06-21T06:22:57.057Z,9.10
2018-06-21T06:25:25.526Z,8.00
2018-06-21T06:27:53.982Z,6.87
2018-06-21T06:30:21.976Z,11.57
2018-06-21T06:32:50.226Z,10.63
2018-06-21T06:35:18.499Z,6.97
2018-06-21T06:37:47.105Z,9.97
2018-06-21T06:40:15.453Z,11.63
2018-06-21T06:42:43.730Z,8.67
2018-06-21T06:45:11.965Z,8.27
2018-06-21T06:47:41.273Z,11.00
2018-06-21T06:50:09.521Z,6.97
2018-06-21T06:52:37.761Z,9.87
2018-06-21T06:55:06.498Z,5.23
2018-06-21T06:57:34.973Z,4.73
2018-06-21T07:00:03.297Z,7.73
2018-06-21T07:02:31.534Z,8.80
2018-06-21T07:04:59.910Z,9.00
2018-06-21T07:07:28.217Z,9.43
2018-06-21T07:09:56.643Z,6.83
2018-06-21T07:12:24.893Z,9.30
2018-06-21T07:14:53.170Z,11.90
2018-06-21T07:17:21.662Z,9.03
2018-06-21T07:19:49.968Z,10.80
2018-06-21T07:22:18.274Z,7.93
2018-06-21T07:24:46.701Z,9.27
2018-06-21T07:27:14.783Z,13.30
2018-06-21T07:29:43.309Z,10.03
2018-06-21T07:32:11.615Z,10.13
2018-06-21T07:34:39.883Z,8.17
2018-06-21T07:37:08.147Z,13.53
2018-06-21T07:39:36.506Z,6.07
2018-06-21T07:42:04.742Z,11.27
2018-06-21T07:44:32.991Z,8.50
2018-06-21T07:47:01.683Z,15.70
2018-06-21T07:49:29.956Z,6.27
2018-06-21T07:51:58.269Z,6.03
2018-06-21T07:54:26.397Z,5.43
2018-06-21T07:56:54.633Z,8.70
2018-06-21T07:59:22.922Z,10.47
2018-06-21T08:01:51.410Z,6.10
2018-06-21T08:04:19.685Z,6.60
2018-06-21T08:06:47.918Z,6.90
2018-06-21T08:09:16.026Z,8.43
2018-06-21T08:11:44.308Z,8.17
2018-06-21T08:14:12.512Z,18.40
2018-06-21T08:16:43.473Z,9.03
2018-06-21T08:19:11.809Z,5.40
2018-06-21T08:21:40.118Z,4.60
2018-06-21T08:24:08.778Z,13.50
2018-06-21T08:26:37.055Z,6.93
2018-06-21T08:29:05.357Z,9.20
2018-06-21T08:31:33.770Z,9.33
2018-06-21T08:34:01.990Z,9.53
2018-06-21T08:36:30.222Z,8.50
2018-06-21T08:38:58.674Z,6.73
2018-06-21T08:41:31.743Z,5.77
2018-06-21T08:44:00.434Z,9.30
2018-06-21T08:46:28.822Z,7.67
2018-06-21T08:48:57.086Z,10.13
2018-06-21T08:51:25.389Z,10.33
2018-06-21T08:53:53.693Z,6.80
2018-06-21T08:56:21.937Z,9.50
2018-06-21T08:58:50.750Z,11.77
2018-06-21T09:01:19.001Z,10.77
2018-06-21T09:03:47.331Z,8.13
2018-06-21T09:06:15.967Z,6.73
2018-06-21T09:08:44.364Z,9.87
2018-06-21T09:11:12.781Z,5.83
2018-06-21T09:13:41.710Z,5.73
2018-06-21T09:16:11.142Z,6.57
2018-06-21T09:18:39.303Z,12.43
2018-06-21T09:21:07.786Z,5.97
2018-06-21T09:23:36.006Z,8.50
2018-06-21T09:26:04.380Z,12.53
2018-06-21T09:28:32.674Z,10.10
2018-06-21T09:31:01.045Z,6.53
2018-06-21T09:33:29.450Z,18.10
2018-06-21T09:35:57.740Z,6.90
2018-06-21T09:40:35.705Z,10.07
2018-06-21T09:43:09.317Z,8.07
2018-06-21T09:45:43.091Z,8.37
2018-06-21T09:48:16.580Z,7.93
2018-06-21T09:50:44.834Z,13.87
2018-06-21T09:53:13.086Z,7.53
2018-06-21T09:55:41.414Z,8.73
2018-06-21T09:58:09.708Z,5.17
2018-06-21T10:00:43.448Z,4.60
2018-06-21T10:03:11.730Z,6.33
2018-06-21T10:05:39.975Z,7.27
2018-06-21T10:08:08.081Z,11.83
2018-06-21T10:10:38.102Z,7.90
2018-06-21T10:13:06.456Z,6.43
2018-06-21T10:15:34.690Z,7.40
2018-06-21T10:18:02.951Z,7.50
2018-06-21T10:20:31.219Z,10.00
2018-06-21T10:22:59.637Z,7.13
2018-06-21T10:25:27.930Z,7.20
2018-06-21T10:27:56.174Z,7.80
2018-06-21T10:30:24.582Z,8.60
2018-06-21T10:32:53.494Z,8.10
2018-06-21T10:35:22.118Z,5.00
2018-06-21T10:37:50.969Z,7.50
2018-06-21T10:40:19.252Z,5.77
2018-06-21T10:42:47.483Z,4.70
2018-06-21T10:45:15.659Z,8.03
2018-06-21T10:47:43.864Z,9.97
2018-06-21T10:50:12.086Z,11.47
2018-06-21T10:52:40.354Z,8.67
2018-06-21T10:55:08.572Z,4.33
2018-06-21T10:57:36.866Z,8.53
2018-06-21T11:00:05.462Z,8.33
2018-06-21T11:02:33.730Z,6.37
2018-06-21T11:05:02.100Z,8.33
2018-06-21T11:07:30.389Z,8.13
2018-06-21T11:09:58.670Z,8.63
2018-06-21T11:12:27.006Z,8.23
2018-06-21T11:14:55.415Z,6.30
2018-06-21T11:17:23.675Z,5.73
2018-06-21T11:19:52.718Z,5.63
2018-06-21T11:22:21.050Z,7.70
2018-06-21T11:24:49.265Z,9.07
2018-06-21T11:27:17.486Z,7.70
2018-06-21T11:29:45.738Z,8.93
2018-06-21T11:32:14.010Z,6.60
2018-06-21T11:34:42.234Z,8.37
2018-06-21T11:37:10.377Z,8.33
2018-06-21T11:39:38.670Z,8.07
2018-06-21T11:42:06.646Z,5.60
2018-06-21T11:44:35.133Z,5.77
2018-06-21T11:47:03.231Z,7.03
2018-06-21T11:49:31.508Z,7.83
2018-06-21T11:51:59.797Z,10.90
2018-06-21T11:54:28.074Z,7.87
2018-06-21T11:56:56.383Z,6.07
2018-06-21T11:59:24.700Z,7.93
2018-06-21T12:01:53.903Z,7.17
2018-06-21T12:04:22.234Z,4.40
2018-06-21T12:06:50.511Z,6.30
2018-06-21T12:09:18.738Z,8.00
2018-06-21T12:11:46.974Z,10.27
2018-06-21T12:14:15.882Z,11.37
2018-06-21T12:16:44.174Z,7.40
2018-06-21T12:19:12.450Z,5.23
2018-06-21T12:21:40.818Z,6.63
2018-06-21T12:24:09.123Z,7.57
2018-06-21T12:26:37.397Z,8.43
2018-06-21T12:29:06.163Z,6.63
2018-06-21T12:31:34.423Z,8.80
2018-06-21T12:34:02.630Z,6.30
2018-06-21T12:36:31.290Z,7.50
2018-06-21T12:38:59.796Z,6.77
2018-06-21T12:41:27.781Z,3.80
2018-06-21T12:43:56.178Z,5.60
2018-06-21T12:46:24.425Z,4.93
2018-06-21T12:48:52.669Z,6.90
2018-06-21T12:51:20.950Z,7.17
2018-06-21T12:53:49.226Z,8.57
2018-06-21T12:56:17.481Z,8.33
2018-06-21T12:58:45.799Z,7.63
2018-06-21T13:01:14.062Z,5.53
2018-06-21T13:03:42.342Z,6.43
2018-06-21T13:06:10.489Z,9.37
2018-06-21T13:08:50.006Z,8.47
2018-06-21T13:12:30.669Z,6.90
2018-06-21T13:15:03.938Z,7.97
2018-06-21T13:17:32.561Z,7.83
2018-06-21T13:20:01.966Z,6.50
2018-06-21T13:22:30.259Z,8.67
2018-06-21T13:27:32.359Z,9.23
2018-06-21T13:30:03.425Z,6.93
2018-06-21T13:32:31.751Z,6.70
2018-06-21T13:35:00.004Z,9.43
2018-06-21T13:37:28.302Z,8.97
2018-06-21T13:39:56.817Z,9.37
2018-06-21T13:42:25.086Z,8.27
2018-06-21T13:44:53.466Z,12.47
2018-06-21T13:47:21.703Z,4.37
2018-06-21T13:49:49.954Z,6.80
2018-06-21T13:52:18.359Z,6.83
2018-06-21T13:54:46.783Z,3.97
2018-06-21T13:57:20.352Z,7.90
2018-06-21T13:59:48.707Z,8.33
2018-06-21T14:02:16.838Z,6.63
2018-06-21T14:04:45.325Z,8.40
2018-06-21T14:07:13.610Z,9.70
2018-06-21T14:09:42.602Z,6.30
2018-06-21T14:12:11.033Z,7.13
2018-06-21T14:14:39.415Z,4.90
2018-06-21T14:17:07.746Z,7.57
2018-06-21T14:19:39.409Z,6.33
2018-06-21T14:22:07.597Z,4.53
2018-06-21T14:24:35.869Z,8.97
2018-06-21T14:27:04.350Z,6.80
2018-06-21T14:29:32.637Z,5.43
2018-06-21T14:32:00.872Z,7.20
2018-06-21T14:34:29.143Z,5.37
2018-06-21T14:36:59.072Z,12.13
2018-06-21T14:39:27.344Z,10.13
2018-06-21T14:41:55.844Z,9.33
2018-06-21T14:44:24.086Z,8.60
2018-06-21T14:46:52.410Z,5.93
2018-06-21T14:49:20.762Z,6.43
2018-06-21T14:51:49.118Z,9.37
2018-06-21T14:54:17.329Z,8.90
2018-06-21T14:56:45.361Z,8.33
2018-06-21T14:59:14.158Z,6.57
2018-06-21T15:01:42.370Z,7.00
2018-06-21T15:04:10.961Z,5.67
2018-06-21T15:06:39.299Z,5.23
2018-06-21T15:09:09.890Z,5.30
2018-06-21T15:11:39.110Z,11.10
2018-06-21T15:14:07.386Z,5.10
2018-06-21T15:16:35.662Z,7.10
2018-06-21T15:19:04.006Z,6.00
2018-06-21T15:21:36.800Z,9.30
2018-06-21T15:24:05.389Z,7.47
2018-06-21T15:26:33.667Z,3.63
2018-06-21T15:29:01.697Z,7.00
2018-06-21T15:31:30.054Z,8.13
2018-06-21T15:33:59.142Z,7.90
2018-06-21T15:36:27.426Z,8.53
2018-06-21T15:38:58.254Z,9.93
2018-06-21T15:41:27.839Z,11.37
2018-06-21T15:43:56.950Z,16.17
2018-06-21T15:46:26.418Z,12.00
2018-06-21T15:48:54.788Z,5.93
2018-06-21T15:51:23.092Z,9.80
2018-06-21T15:53:51.470Z,7.23
2018-06-21T15:56:19.775Z,9.63
2018-06-21T15:58:48.074Z,9.90
2018-06-21T16:01:16.367Z,7.90
2018-06-21T16:03:44.643Z,8.93
2018-06-21T16:06:12.889Z,10.33
2018-06-21T16:08:41.220Z,10.40
2018-06-21T16:11:09.474Z,11.97
2018-06-21T16:13:37.738Z,13.30
2018-06-21T16:16:06.062Z,7.73
2018-06-21T16:18:34.337Z,8.50
2018-06-21T16:21:02.546Z,8.70
2018-06-21T16:23:31.278Z,7.23
2018-06-21T16:25:59.985Z,7.77
2018-06-21T16:28:28.286Z,10.73
2018-06-21T16:30:56.690Z,8.53
2018-06-21T16:33:24.998Z,11.27
2018-06-21T16:35:53.379Z,8.07
2018-06-21T16:38:40.501Z,9.70
2018-06-21T16:41:08.880Z,8.83
2018-06-21T16:43:37.199Z,10.80
2018-06-21T16:46:05.590Z,6.20
2018-06-21T16:48:33.845Z,12.13
2018-06-21T16:51:02.328Z,17.73
2018-06-21T16:53:30.699Z,9.47
2018-06-21T16:55:59.396Z,7.60
2018-06-21T16:58:27.726Z,7.50
2018-06-21T17:00:56.234Z,12.87
2018-06-21T17:03:24.528Z,8.43
2018-06-21T17:05:52.940Z,7.40
2018-06-21T17:08:21.438Z,10.00
2018-06-21T17:10:49.702Z,10.33
2018-06-21T17:13:18.013Z,13.90
2018-06-21T17:15:46.826Z,9.93
2018-06-21T17:18:15.278Z,7.53
2018-06-21T17:20:43.283Z,9.83
2018-06-21T17:23:11.918Z,7.93
2018-06-21T17:25:40.195Z,6.83
2018-06-21T17:28:09.086Z,10.77
2018-06-21T17:30:37.442Z,9.03
2018-06-21T17:33:06.064Z,9.67
2018-06-21T17:35:34.315Z,7.80
2018-06-21T17:38:03.501Z,4.53
2018-06-21T17:40:32.030Z,7.33
2018-06-21T17:43:04.206Z,5.93
2018-06-21T17:45:33.390Z,8.00
2018-06-21T17:48:03.656Z,7.07
2018-06-21T17:50:33.686Z,6.23
2018-06-21T17:53:02.149Z,7.60
2018-06-21T17:55:30.386Z,10.57
2018-06-21T17:57:58.770Z,9.43
2018-06-21T18:00:26.946Z,7.53
2018-06-21T18:02:55.248Z,7.93
2018-06-21T18:05:24.247Z,8.23
2018-06-21T18:08:08.833Z,6.30
2018-06-21T18:16:25.598Z,9.73
2018-06-21T18:18:54.209Z,12.53
2018-06-21T18:21:22.818Z,6.77
2018-06-21T18:23:52.476Z,9.43
2018-06-21T18:32:47.917Z,16.50
2018-06-21T18:35:16.451Z,9.77
2018-06-21T18:37:45.397Z,11.67
2018-06-21T18:40:14.188Z,12.20
2018-06-21T18:42:42.864Z,7.67
2018-06-21T18:45:11.545Z,10.43
2018-06-21T18:47:40.438Z,13.73
2018-06-21T18:50:09.185Z,10.57
2018-06-21T18:52:38.012Z,11.70
2018-06-21T18:55:06.477Z,17.90
2018-06-21T18:57:35.951Z,6.80
2018-06-21T19:00:05.786Z,10.83
2018-06-21T19:02:35.087Z,11.87
2018-06-21T19:05:04.867Z,6.23
2018-06-21T19:07:36.024Z,10.37
2018-06-21T19:10:11.340Z,7.17
2018-06-21T19:12:42.568Z,9.00
2018-06-21T19:15:13.548Z,5.47
2018-06-21T19:17:42.749Z,10.23
2018-06-21T19:20:12.180Z,6.43
2018-06-21T19:22:42.303Z,5.67
2018-06-21T19:25:10.778Z,8.33
2018-06-21T19:27:38.877Z,9.40
2018-06-21T19:30:07.664Z,10.40
2018-06-21T19:32:36.154Z,8.73
2018-06-21T19:35:05.480Z,7.40
2018-06-21T19:37:33.796Z,9.97
2018-06-21T19:40:03.904Z,9.30
2018-06-21T19:42:32.680Z,11.23
2018-06-21T19:45:00.954Z,13.80
2018-06-21T19:47:29.009Z,9.93
2018-06-21T19:49:58.202Z,10.47
2018-06-21T19:52:26.568Z,8.23
2018-06-21T19:54:54.852Z,8.87
2018-06-21T19:57:23.237Z,9.20
2018-06-21T19:59:51.522Z,14.23
2018-06-21T20:02:19.694Z,10.77
2018-06-21T20:04:55.249Z,8.13
2018-06-21T20:07:24.751Z,7.13
2018-06-21T20:09:53.950Z,8.23
2018-06-21T20:12:22.498Z,9.57
2018-06-21T20:14:50.953Z,10.53
2018-06-21T20:17:19.178Z,3.00
2018-06-21T20:19:53.509Z,9.33
2018-06-21T20:22:22.182Z,13.83
2018-06-21T20:25:04.522Z,7.83
2018-06-21T20:27:32.533Z,12.50
2018-06-21T20:33:07.810Z,9.47
2018-06-21T20:35:37.999Z,10.67
2018-06-21T20:38:06.633Z,12.20
2018-06-21T20:40:34.990Z,6.47
2018-06-21T20:43:03.502Z,8.23
2018-06-21T20:45:32.997Z,9.50
2018-06-21T20:48:01.414Z,9.23
2018-06-21T20:50:29.753Z,10.07
2018-06-21T20:52:58.335Z,10.40
2018-06-21T20:55:26.590Z,9.43
2018-06-21T20:57:54.894Z,7.33
2018-06-21T21:00:23.177Z,7.93
2018-06-21T21:02:51.453Z,14.43
2018-06-21T21:05:20.215Z,6.83
2018-06-21T21:07:49.809Z,12.63
2018-06-21T21:10:26.903Z,9.07
2018-06-21T21:12:55.274Z,10.47
2018-06-21T21:15:23.598Z,8.63
2018-06-21T21:17:51.913Z,7.93
2018-06-21T21:20:20.226Z,5.40
2018-06-21T21:22:56.088Z,8.50
2018-06-21T21:25:37.401Z,9.63
2018-06-21T21:28:06.199Z,5.53
2018-06-21T21:30:35.057Z,8.27
2018-06-21T21:33:03.374Z,9.87
2018-06-21T21:35:33.016Z,7.30
2018-06-21T21:38:01.790Z,9.63
2018-06-21T21:40:30.073Z,9.50
2018-06-21T21:42:58.365Z,7.83
2018-06-21T21:45:26.727Z,9.20
2018-06-21T21:47:54.982Z,7.47
2018-06-21T21:50:23.450Z,6.53
2018-06-21T21:52:51.766Z,6.70
2018-06-21T21:55:20.574Z,8.83
2018-06-21T21:57:48.887Z,8.33
2018-06-21T22:00:56.496Z,5.87
2018-06-21T22:03:25.210Z,11.10
2018-06-21T22:05:53.516Z,9.50
2018-06-21T22:08:21.766Z,6.03
2018-06-21T22:10:50.162Z,10.37
2018-06-21T22:13:18.764Z,6.87
2018-06-21T22:15:47.021Z,6.63
2018-06-21T22:18:15.462Z,8.80
2018-06-21T22:20:43.718Z,6.47
2018-06-21T22:23:11.998Z,11.97
2018-06-21T22:25:40.117Z,10.03
2018-06-21T22:28:08.370Z,9.20
2018-06-21T22:30:36.599Z,7.20
2018-06-21T22:33:05.037Z,11.07
2018-06-21T22:35:33.287Z,8.23
2018-06-21T22:38:01.316Z,9.00
2018-06-21T22:40:29.811Z,10.17
2018-06-21T22:42:58.073Z,11.00
2018-06-21T22:45:26.382Z,15.27
2018-06-21T22:47:54.982Z,9.57
2018-06-21T22:50:23.242Z,12.27
2018-06-21T22:52:51.547Z,9.03
2018-06-21T22:55:20.290Z,12.33
2018-06-21T22:57:48.558Z,12.73
2018-06-21T23:00:17.374Z,10.03
2018-06-21T23:02:45.899Z,11.70
2018-06-21T23:05:14.407Z,10.90
2018-06-21T23:07:42.654Z,9.57
2018-06-21T23:10:11.106Z,9.17
2018-06-21T23:12:39.375Z,6.60
2018-06-21T23:15:07.658Z,15.90
2018-06-21T23:17:35.670Z,11.60
2018-06-21T23:20:03.902Z,10.00
2018-06-21T23:22:32.131Z,9.57
2018-06-21T23:25:00.520Z,9.33
2018-06-21T23:27:28.767Z,9.90
2018-06-21T23:29:57.078Z,9.37
2018-06-21T23:32:25.533Z,12.07
2018-06-21T23:34:53.837Z,6.83
2018-06-21T23:37:22.120Z,10.07
2018-06-21T23:39:50.561Z,7.37
2018-06-21T23:42:18.868Z,9.27
2018-06-21T23:44:47.180Z,8.57
2018-06-21T23:47:15.540Z,8.57
2018-06-21T23:49:43.832Z,8.97
2018-06-21T23:52:12.128Z,9.80
2018-06-21T23:54:41.097Z,10.00
2018-06-21T23:57:09.740Z,8.67
2018-06-21T23:59:38.048Z,6.20
